Temp: 0.7°C   Baro: 1011.5mb
  Wind: 0.0mph   Dir: N (352°)
  Rain: 0.0mm (0.0mm/hr)
  Solar: 0W/m2  Hum: 85%

Historic data

Bath Spa Weather Station Historical Data
Daily Summary for October 18, 2021 Units:  Metric    English   Both
Daily Weekly Monthly Yearly Custom
  High: Low: Average:
Temperature: 16.4 °C 9.9 °C 14.1 °C
Dew Point: 15.8 °C 9.2 °C 13.4 °C
Humidity: 95% 90% 93%
Wind Speed: 10.3km/h 0km/h 3.5km/h
Wind Gust: 22.5km/h - -
Wind- - SSW
Pressure: 1017.8 hPa 1012.8 hPa -
Precipitation: 1.52 mm    
Historical Graphs
 
 
Tabular Data for October 18, 2021
Time Temperature Dew Point Pressure Wind Wind Speed Wind Gust Humidity Rainfall Rate (Hourly) solar
00:04 10.9 °C 9.8 °C 1017.8 hPa SSW 0.3 km/h 4.8 km/h 90% 0 mm 0 W/m2
00:09 10.8 °C 9.7 °C 1017.8 hPa SSW 0.6 km/h 4.8 km/h 90% 0 mm 0 W/m2
00:14 10.8 °C 9.7 °C 1017.8 hPa SSW 1.6 km/h 4.8 km/h 90% 0 mm 0 W/m2
00:19 10.8 °C 9.7 °C 1017.8 hPa Calm   4.8 km/h 90% 0 mm 0 W/m2
00:24 10.7 °C 9.7 °C 1017.8 hPa Calm   4.8 km/h 90% 0 mm 0 W/m2
00:29 10.7 °C 9.6 °C 1017.5 hPa SSW 0.3 km/h 3.2 km/h 90% 0 mm 0 W/m2
00:34 10.7 °C 9.6 °C 1017.5 hPa Calm   1.6 km/h 90% 0 mm 0 W/m2
00:39 10.7 °C 9.6 °C 1017.5 hPa Calm   1.6 km/h 90% 0 mm 0 W/m2
00:44 10.6 °C 9.5 °C 1017.5 hPa Calm     90% 0 mm 0 W/m2
00:49 10.6 °C 9.5 °C 1017.5 hPa Calm     90% 0 mm 0 W/m2
00:54 10.5 °C 9.4 °C 1017.5 hPa Calm     90% 0 mm 0 W/m2
00:59 10.5 °C 9.6 °C 1017.5 hPa Calm   3.2 km/h 90.8% 0 mm 0 W/m2
01:04 10.6 °C 9.7 °C 1017.5 hPa SSW 0.3 km/h 3.2 km/h 91% 0 mm 0 W/m2
01:09 10.7 °C 9.7 °C 1017.5 hPa SSW 1.3 km/h 3.2 km/h 91% 0 mm 0 W/m2
01:14 10.7 °C 9.8 °C 1017.5 hPa SSW 0.8 km/h 3.2 km/h 91% 0 mm 0 W/m2
01:19 10.7 °C 9.8 °C 1017.5 hPa SSW 1 km/h 4.8 km/h 91% 0 mm 0 W/m2
01:24 10.7 °C 9.8 °C 1017.5 hPa SSW 0.3 km/h 3.2 km/h 91% 0 mm 0 W/m2
01:29 10.7 °C 9.8 °C 1017.5 hPa SSW 1.9 km/h 4.8 km/h 91% 0 mm 0 W/m2
01:34 10.7 °C 9.8 °C 1017.5 hPa SSW 2.6 km/h 3.2 km/h 91% 0 mm 0 W/m2
01:39 10.7 °C 9.7 °C 1017.5 hPa SSW 1.4 km/h 4.8 km/h 91% 0 mm 0 W/m2
01:44 10.6 °C 9.7 °C 1017.5 hPa SSW 1.4 km/h 4.8 km/h 91% 0 mm 0 W/m2
01:49 10.6 °C 9.7 °C 1017.5 hPa SSW 2.9 km/h 4.8 km/h 91% 0 mm 0 W/m2
01:54 10.6 °C 9.7 °C 1017.5 hPa SSW 1.8 km/h 4.8 km/h 91% 0 mm 0 W/m2
01:58 10.6 °C 9.6 °C 1017.5 hPa SSW 3.2 km/h 4.8 km/h 91% 0 mm 0 W/m2
02:04 10.5 °C 9.6 °C 1017.5 hPa SSW 1.3 km/h 4.8 km/h 91% 0 mm 0 W/m2
02:09 10.5 °C 9.6 °C 1017.5 hPa SSW 2.3 km/h 4.8 km/h 91% 0 mm 0 W/m2
02:14 10.6 °C 9.7 °C 1017.5 hPa SSW 2.1 km/h 4.8 km/h 91% 0 mm 0 W/m2
02:19 10.6 °C 9.7 °C 1017.5 hPa Calm   3.2 km/h 91% 0 mm 0 W/m2
02:24 10.5 °C 9.6 °C 1017.5 hPa SSW 1 km/h 4.8 km/h 91% 0 mm 0 W/m2
02:29 10.6 °C 9.7 °C 1017.5 hPa SSW 2.1 km/h 3.2 km/h 91% 0 mm 0 W/m2
02:34 10.6 °C 9.7 °C 1017.5 hPa SSW 0.3 km/h 4.8 km/h 91% 0 mm 0 W/m2
02:39 10.6 °C 9.7 °C 1017.5 hPa SSW 0.6 km/h 3.2 km/h 91.6% 0 mm 0 W/m2
02:44 10.6 °C 9.8 °C 1017.5 hPa SSW 1.3 km/h 4.8 km/h 91.8% 0 mm 0 W/m2
02:49 10.5 °C 9.8 °C 1017.5 hPa SSW 1 km/h 3.2 km/h 92% 0 mm 0 W/m2
02:54 10.4 °C 9.7 °C 1017.5 hPa SSW 2.7 km/h 3.2 km/h 92% 0 mm 0 W/m2
02:59 10.4 °C 9.7 °C 1017.5 hPa SSW 1.4 km/h 3.2 km/h 92% 0 mm 0 W/m2
03:04 10.4 °C 9.7 °C 1017.5 hPa SSW 1.9 km/h 3.2 km/h 92% 0 mm 0 W/m2
03:09 10.3 °C 9.7 °C 1017.2 hPa SSW 1.4 km/h 3.2 km/h 92% 0 mm 0 W/m2
03:14 10.4 °C 9.7 °C 1017.2 hPa SSW 1.8 km/h 4.8 km/h 92% 0 mm 0 W/m2
03:19 10.4 °C 9.7 °C 1017.2 hPa SSW 1.8 km/h 3.2 km/h 92% 0 mm 0 W/m2
03:24 10.3 °C 9.7 °C 1017.2 hPa SSW 0.6 km/h 3.2 km/h 92% 0 mm 0 W/m2
03:29 10.4 °C 9.7 °C 1016.8 hPa SSW 1.3 km/h 3.2 km/h 92% 0 mm 0 W/m2
03:34 10.4 °C 9.7 °C 1016.8 hPa SSW 0.3 km/h 3.2 km/h 92% 0 mm 0 W/m2
03:39 10.4 °C 9.7 °C 1016.8 hPa Calm     92% 0 mm 0 W/m2
03:44 10.4 °C 9.7 °C 1016.8 hPa Calm     92% 0 mm 0 W/m2
03:49 10.2 °C 9.5 °C 1016.5 hPa SSW 0.6 km/h 3.2 km/h 92% 0 mm 0 W/m2
03:54 10.1 °C 9.3 °C 1016.8 hPa Calm   1.6 km/h 92% 0 mm 0 W/m2
03:59 9.9 °C 9.2 °C 1016.5 hPa SSW 1.3 km/h 4.8 km/h 92% 0 mm 0 W/m2
04:04 10.3 °C 9.6 °C 1016.5 hPa SSW 4.8 km/h 8 km/h 92% 0 mm 0 W/m2
04:09 10.6 °C 9.9 °C 1016.5 hPa SSW 1.4 km/h 8 km/h 92.8% 0 mm 0 W/m2
04:13 10.7 °C 10.1 °C 1016.5 hPa SSW 2.7 km/h 8 km/h 93% 0 mm 0 W/m2
04:19 10.7 °C 10.2 °C 1016.5 hPa SSW 2.6 km/h 8 km/h 93% 0 mm 0 W/m2
04:24 10.8 °C 10.2 °C 1016.5 hPa SSW 2.6 km/h 6.4 km/h 93% 0 mm 0 W/m2
04:29 10.9 °C 10.3 °C 1016.5 hPa SSW 3.5 km/h 8 km/h 93% 0 mm 0 W/m2
04:34 11.1 °C 10.4 °C 1016.5 hPa SSW 4 km/h 9.7 km/h 93% 0 mm 0 W/m2
04:39 11.2 °C 10.6 °C 1016.1 hPa SSW 1.9 km/h 8 km/h 93% 0 mm 0 W/m2
04:44 11.1 °C 10.5 °C 1016.1 hPa SSW 1.1 km/h 4.8 km/h 93% 0 mm 0 W/m2
04:49 11.1 °C 10.5 °C 1016.5 hPa SSW 1.3 km/h 6.4 km/h 93% 0 mm 0 W/m2
04:54 11.1 °C 10.5 °C 1016.5 hPa SSW 3.4 km/h 8 km/h 93% 0 mm 0 W/m2
04:59 11.1 °C 10.5 °C 1016.5 hPa SSW 1.9 km/h 8 km/h 93% 0 mm 0 W/m2
05:04 11.2 °C 10.6 °C 1016.5 hPa SSW 2.7 km/h 6.4 km/h 93% 0 mm 0 W/m2
05:09 11.2 °C 10.6 °C 1016.5 hPa SSW 1.6 km/h 6.4 km/h 93% 0 mm 0 W/m2
05:14 11.2 °C 10.6 °C 1016.5 hPa Calm   3.2 km/h 93% 0 mm 0 W/m2
05:19 11.2 °C 10.7 °C 1016.5 hPa SSW 0.6 km/h 4.8 km/h 93% 0 mm 0 W/m2
05:23 11.3 °C 10.7 °C 1016.5 hPa SSW 1.1 km/h 3.2 km/h 93% 0 mm 0 W/m2
05:29 11.3 °C 10.7 °C 1016.5 hPa SSW 0.6 km/h 3.2 km/h 93% 0 mm 0 W/m2
05:34 11.3 °C 10.7 °C 1016.5 hPa SSW 0.6 km/h 3.2 km/h 93% 0 mm 0 W/m2
05:39 11.2 °C 10.6 °C 1016.8 hPa Calm     93% 0 mm 0 W/m2
05:44 11.2 °C 10.7 °C 1016.5 hPa SSW 3.2 km/h 6.4 km/h 93% 0 mm 0 W/m2
05:49 11.3 °C 10.7 °C 1016.8 hPa SSW 2.7 km/h 8 km/h 93% 0 mm 0 W/m2
05:54 11.3 °C 10.7 °C 1016.8 hPa SSW 2.1 km/h 4.8 km/h 93% 0 mm 0 W/m2
05:59 11.4 °C 10.8 °C 1016.8 hPa SSW 3.4 km/h 6.4 km/h 93% 0 mm 0 W/m2
06:04 11.6 °C 10.9 °C 1016.5 hPa SSW 4.2 km/h 8 km/h 93% 0 mm 0 W/m2
06:09 11.7 °C 11.1 °C 1016.5 hPa SSW 2.1 km/h 4.8 km/h 93% 0 mm 0 W/m2
06:13 11.7 °C 11.2 °C 1016.5 hPa SSW 3.5 km/h 6.4 km/h 93% 0 mm 0 W/m2
06:19 11.8 °C 11.2 °C 1016.5 hPa SSW 2.1 km/h 8 km/h 93% 0 mm 0 W/m2
06:24 11.9 °C 11.3 °C 1016.1 hPa SSW 1.6 km/h 6.4 km/h 93% 0 mm 0 W/m2
06:29 11.9 °C 11.3 °C 1016.1 hPa SSW 1.3 km/h 6.4 km/h 93% 0 mm 0 W/m2
06:34 12 °C 11.4 °C 1016.1 hPa SSW 1.3 km/h 6.4 km/h 93% 0 mm 0 W/m2
06:39 12 °C 11.4 °C 1016.1 hPa SSW 2.6 km/h 9.7 km/h 93% 0 mm 0 W/m2
06:44 12 °C 11.4 °C 1016.1 hPa SSW 1.8 km/h 6.4 km/h 93% 0 mm 0 W/m2
06:49 12 °C 11.4 °C 1016.1 hPa SSW 2.7 km/h 8 km/h 93% 0 mm 0 W/m2
06:54 11.9 °C 11.3 °C 1015.8 hPa SSW 4.8 km/h 11.3 km/h 93% 0 mm 0 W/m2
06:59 11.9 °C 11.3 °C 1015.8 hPa SSW 1.4 km/h 8 km/h 93% 0 mm 0 W/m2
07:04 11.9 °C 11.3 °C 1015.8 hPa SSW 0.6 km/h 3.2 km/h 93% 0 mm 0 W/m2
07:09 12.1 °C 11.4 °C 1015.5 hPa SSW 3.4 km/h 8 km/h 93% 0 mm 0 W/m2
07:14 12.1 °C 11.5 °C 1015.1 hPa SSW 4.2 km/h 8 km/h 93% 0 mm 0 W/m2
07:19 12.2 °C 11.6 °C 1015.5 hPa SSW 2.1 km/h 8 km/h 93% 0 mm 0 W/m2
07:24 12.3 °C 11.7 °C 1015.5 hPa SSW 3.2 km/h 9.7 km/h 93% 0 mm 0 W/m2
07:29 12.3 °C 11.7 °C 1015.1 hPa SSW 3.5 km/h 9.7 km/h 93% 0 mm 0 W/m2
07:34 12.3 °C 11.7 °C 1015.1 hPa SSW 1.3 km/h 8 km/h 93% 0 mm 0 W/m2
07:39 12.2 °C 11.6 °C 1015.1 hPa SSW 0.6 km/h 9.7 km/h 93% 0 mm 0 W/m2
07:44 12.2 °C 11.6 °C 1015.1 hPa Calm   1.6 km/h 93% 0 mm 0 W/m2
07:49 12.2 °C 11.6 °C 1015.1 hPa Calm   3.2 km/h 93% 0 mm 0 W/m2
07:54 12.3 °C 11.7 °C 1015.5 hPa SSW 0.3 km/h 4.8 km/h 93% 0 mm 0 W/m2
07:59 12.3 °C 11.7 °C 1015.5 hPa SSW 0.6 km/h 3.2 km/h 93% 0 mm 5 W/m2
08:04 12.4 °C 11.8 °C 1015.5 hPa SSW 1 km/h 4.8 km/h 93% 0 mm 7 W/m2
08:09 12.4 °C 11.8 °C 1015.1 hPa SSW 2.3 km/h 6.4 km/h 93% 0 mm 7 W/m2
08:14 12.6 °C 12 °C 1015.1 hPa SSW 3.1 km/h 9.7 km/h 93% 0 mm 7 W/m2
08:19 12.7 °C 12.1 °C 1015.1 hPa SSW 2.9 km/h 9.7 km/h 93% 0 mm 12 W/m2
08:24 12.8 °C 12.2 °C 1015.1 hPa SSW 4.3 km/h 9.7 km/h 93% 0 mm 12 W/m2
08:29 12.8 °C 12.2 °C 1015.1 hPa SSW 4.3 km/h 8 km/h 93% 0 mm 19 W/m2
08:34 12.9 °C 12.3 °C 1015.5 hPa SSW 0.6 km/h 6.4 km/h 93% 0 mm 19 W/m2
08:39 13.1 °C 12.4 °C 1015.5 hPa SSW 6.4 km/h 9.7 km/h 93% 0 mm 12 W/m2
08:44 13.1 °C 12.5 °C 1015.5 hPa SSW 2.6 km/h 9.7 km/h 93% 0 mm 14 W/m2
08:48 13.2 °C 12.6 °C 1015.1 hPa SSW 4.8 km/h 6.4 km/h 93% 0 mm 12 W/m2
08:54 13.2 °C 12.6 °C 1015.1 hPa SSW 3.4 km/h 8 km/h 93% 0 mm 16 W/m2
08:59 13.2 °C 12.6 °C 1015.1 hPa SSW 4.7 km/h 9.7 km/h 93% 0 mm 18 W/m2
09:04 13.2 °C 12.6 °C 1015.1 hPa SSW 3.9 km/h 11.3 km/h 93% 0 mm 12 W/m2
09:09 13.2 °C 12.6 °C 1015.1 hPa SSW 4.2 km/h 11.3 km/h 93% 0 mm 11 W/m2
09:14 13.3 °C 12.7 °C 1015.1 hPa SSW 3.2 km/h 11.3 km/h 93% 0 mm 16 W/m2
09:19 13.3 °C 12.8 °C 1015.1 hPa SSW 5.3 km/h 14.5 km/h 93% 0 mm 21 W/m2
09:24 13.4 °C 12.8 °C 1015.1 hPa SSW 3.5 km/h 8 km/h 93% 0 mm 21 W/m2
09:29 13.6 °C 12.9 °C 1015.1 hPa SSW 2.7 km/h 9.7 km/h 93% 0 mm 21 W/m2
09:34 13.6 °C 13 °C 1015.1 hPa SSW 2.1 km/h 8 km/h 93% 0 mm 26 W/m2
09:39 13.7 °C 13.1 °C 1015.1 hPa SSW 5.1 km/h 8 km/h 93% 0 mm 28 W/m2
09:44 13.8 °C 13.2 °C 1015.1 hPa SSW 2.7 km/h 9.7 km/h 93% 0 mm 46 W/m2
09:49 13.9 °C 13.3 °C 1015.1 hPa SSW 6.4 km/h 14.5 km/h 93% 0 mm 49 W/m2
09:54 14.1 °C 13.4 °C 1015.1 hPa SSW 6.6 km/h 12.9 km/h 93% 0 mm 53 W/m2
09:59 14.2 °C 13.6 °C 1015.1 hPa SSW 5.8 km/h 14.5 km/h 93.6% 0 mm 63 W/m2
10:04 14.3 °C 13.8 °C 1015.1 hPa SSW 6 km/h 12.9 km/h 94% 0 mm 44 W/m2
10:09 14.3 °C 13.8 °C 1014.8 hPa SSW 9.3 km/h 17.7 km/h 94% 0 mm 39 W/m2
10:14 14.3 °C 13.9 °C 1014.8 hPa SSW 8 km/h 16.1 km/h 94% 0 mm 54 W/m2
10:19 14.4 °C 13.9 °C 1015.1 hPa SSW 9 km/h 16.1 km/h 94% 0 mm 60 W/m2
10:24 14.4 °C 13.9 °C 1015.1 hPa South 9.8 km/h 17.7 km/h 94% 0 mm 58 W/m2
10:29 14.5 °C 14 °C 1015.1 hPa South 6.9 km/h 17.7 km/h 94% 0 mm 60 W/m2
10:34 14.6 °C 14.1 °C 1015.1 hPa South 7.7 km/h 19.3 km/h 94% 0 mm 53 W/m2
10:39 14.6 °C 14.1 °C 1014.8 hPa South 8.4 km/h 17.7 km/h 94% 0 mm 67 W/m2
10:44 14.6 °C 14.1 °C 1014.8 hPa South 8.4 km/h 16.1 km/h 94% 0 mm 69 W/m2
10:49 14.7 °C 14.2 °C 1014.8 hPa SSE 9.3 km/h 17.7 km/h 94% 0 mm 44 W/m2
10:54 14.7 °C 14.2 °C 1014.8 hPa SSE 7.2 km/h 14.5 km/h 94% 0 mm 40 W/m2
10:59 14.7 °C 14.2 °C 1014.8 hPa SSE 7.1 km/h 16.1 km/h 94% 0 mm 39 W/m2
11:04 14.7 °C 14.2 °C 1014.8 hPa SSE 6.6 km/h 16.1 km/h 94% 0 mm 42 W/m2
11:09 14.7 °C 14.2 °C 1014.8 hPa SSE 6.3 km/h 14.5 km/h 94% 0 mm 63 W/m2
11:14 14.8 °C 14.3 °C 1014.8 hPa SSE 4 km/h 9.7 km/h 94% 0 mm 56 W/m2
11:19 14.8 °C 14.3 °C 1014.8 hPa SSE 5.8 km/h 14.5 km/h 94% 0 mm 54 W/m2
11:24 14.9 °C 14.4 °C 1014.4 hPa SSE 6.9 km/h 19.3 km/h 94% 0 mm 105 W/m2
11:29 15.2 °C 14.7 °C 1014.4 hPa South 8 km/h 19.3 km/h 94% 0 mm 116 W/m2
11:34 15.2 °C 14.7 °C 1014.4 hPa South 5.6 km/h 14.5 km/h 94% 0 mm 102 W/m2
11:39 15.3 °C 14.8 °C 1014.4 hPa South 5.3 km/h 14.5 km/h 94% 0 mm 120 W/m2
11:44 15.4 °C 14.9 °C 1014.4 hPa South 5.3 km/h 14.5 km/h 94% 0 mm 123 W/m2
11:49 15.5 °C 15 °C 1014.4 hPa South 6.6 km/h 14.5 km/h 94% 0 mm 121 W/m2
11:54 15.6 °C 15.1 °C 1014.4 hPa South 5.6 km/h 11.3 km/h 94% 0 mm 109 W/m2
11:59 15.6 °C 15.1 °C 1014.4 hPa South 7.1 km/h 11.3 km/h 94% 0 mm 95 W/m2
12:04 15.7 °C 15.2 °C 1014.4 hPa South 7.1 km/h 12.9 km/h 94% 0.25 mm 88 W/m2
12:09 15.8 °C 15.3 °C 1014.4 hPa South 10.3 km/h 14.5 km/h 94% 0.25 mm 107 W/m2
12:14 15.9 °C 15.3 °C 1014.4 hPa South 5.6 km/h 12.9 km/h 93.2% 0.25 mm 100 W/m2
12:19 15.9 °C 15.3 °C 1014.4 hPa SSE 5.8 km/h 16.1 km/h 93% 0.25 mm 70 W/m2
12:24 15.9 °C 15.3 °C 1014.1 hPa SSE 2.4 km/h 12.9 km/h 93% 0.25 mm 60 W/m2
12:29 16 °C 15.4 °C 1014.1 hPa SSE 5.5 km/h 11.3 km/h 93% 0.25 mm 49 W/m2
12:34 16 °C 15.4 °C 1014.1 hPa SSE 6.3 km/h 16.1 km/h 92.8% 0.25 mm 62 W/m2
12:39 16.1 °C 15.4 °C 1014.1 hPa South 4 km/h 14.5 km/h 92.8% 0.25 mm 70 W/m2
12:44 16.1 °C 15.3 °C 1014.4 hPa South 6.8 km/h 17.7 km/h 92.3% 0.25 mm 70 W/m2
12:49 16.2 °C 15.4 °C 1014.1 hPa South 3.4 km/h 17.7 km/h 92% 0.25 mm 84 W/m2
12:54 16.2 °C 15.4 °C 1014.1 hPa South 5.1 km/h 12.9 km/h 92% 0.25 mm 79 W/m2
12:59 16.3 °C 15.5 °C 1014.4 hPa South 4.3 km/h 11.3 km/h 92% 0.25 mm 67 W/m2
13:04 16.3 °C 15.6 °C 1014.4 hPa South 5.3 km/h 14.5 km/h 92% 0 mm 65 W/m2
13:09 16.4 °C 15.6 °C 1014.1 hPa South 7.9 km/h 14.5 km/h 92% 0 mm 51 W/m2
13:14 16.4 °C 15.4 °C 1014.4 hPa SSW 8.7 km/h 19.3 km/h 91% 0 mm 33 W/m2
13:19 16.4 °C 15.4 °C 1014.4 hPa SSW 6.6 km/h 19.3 km/h 91% 0 mm 35 W/m2
13:24 16.4 °C 15.4 °C 1014.4 hPa SSW 5.5 km/h 11.3 km/h 91% 0 mm 33 W/m2
13:29 16.3 °C 15.3 °C 1014.1 hPa SSW 7.6 km/h 19.3 km/h 91% 0 mm 30 W/m2
13:34 16.2 °C 15.3 °C 1014.1 hPa SSW 9.2 km/h 17.7 km/h 91.2% 0 mm 88 W/m2
13:39 16.2 °C 15.4 °C 1013.8 hPa South 9.3 km/h 22.5 km/h 92% 0 mm 44 W/m2
13:44 16.2 °C 15.3 °C 1013.8 hPa South 8 km/h 17.7 km/h 92% 0 mm 58 W/m2
13:49 16.1 °C 15.3 °C 1013.8 hPa South 7.7 km/h 14.5 km/h 92% 0 mm 42 W/m2
13:54 16.1 °C 15.3 °C 1013.4 hPa South 6 km/h 11.3 km/h 92% 0 mm 44 W/m2
13:59 16.1 °C 15.3 °C 1013.4 hPa South 5.1 km/h 12.9 km/h 92% 0.25 mm 46 W/m2
14:04 16.1 °C 15.3 °C 1013.4 hPa South 6.9 km/h 11.3 km/h 92% 0.25 mm 51 W/m2
14:09 16.1 °C 15.3 °C 1013.4 hPa South 4.7 km/h 11.3 km/h 92% 0.25 mm 49 W/m2
14:14 16.1 °C 15.3 °C 1013.4 hPa South 4 km/h 11.3 km/h 92% 0.25 mm 49 W/m2
14:19 16.1 °C 15.3 °C 1013.4 hPa South 3.4 km/h 8 km/h 92.4% 0.51 mm 44 W/m2
14:24 16.1 °C 15.3 °C 1013.4 hPa South 6.9 km/h 12.9 km/h 92% 0.51 mm 32 W/m2
14:29 16.1 °C 15.3 °C 1013.4 hPa South 9.7 km/h 17.7 km/h 92% 0.51 mm 28 W/m2
14:34 16.1 °C 15.5 °C 1013.4 hPa SSE 3.9 km/h 17.7 km/h 93% 0.51 mm 30 W/m2
14:39 16.1 °C 15.5 °C 1013.1 hPa SSE 8.5 km/h 16.1 km/h 93% 0.51 mm 30 W/m2
14:44 16.1 °C 15.5 °C 1013.1 hPa SSE 5.1 km/h 16.1 km/h 93% 0.51 mm 26 W/m2
14:49 16.1 °C 15.5 °C 1013.1 hPa SSE 5 km/h 9.7 km/h 93% 0.51 mm 33 W/m2
14:54 16.1 °C 15.5 °C 1013.1 hPa SSE 6 km/h 14.5 km/h 93% 0.51 mm 32 W/m2
14:59 16.1 °C 15.5 °C 1013.4 hPa SSE 4 km/h 12.9 km/h 93% 0.25 mm 28 W/m2
15:04 16.1 °C 15.5 °C 1013.4 hPa SSE 3.4 km/h 8 km/h 93% 0.25 mm 28 W/m2
15:08 16.1 °C 15.5 °C 1013.4 hPa SSE 5.6 km/h 16.1 km/h 93% 0.51 mm 23 W/m2
15:14 16.1 °C 15.5 °C 1013.4 hPa South 4 km/h 9.7 km/h 93% 0.51 mm 32 W/m2
15:19 16.1 °C 15.5 °C 1013.4 hPa South 6.8 km/h 14.5 km/h 93% 0.51 mm 35 W/m2
15:24 16.1 °C 15.5 °C 1013.4 hPa South 8.7 km/h 14.5 km/h 93% 0.25 mm 32 W/m2
15:29 16.1 °C 15.5 °C 1013.1 hPa SSE 8.4 km/h 16.1 km/h 93% 0.25 mm 37 W/m2
15:34 16.1 °C 15.5 °C 1013.1 hPa SSE 9.3 km/h 20.9 km/h 93% 0.25 mm 39 W/m2
15:39 16.1 °C 15.5 °C 1013.1 hPa SSW 7.6 km/h 20.9 km/h 93% 0.51 mm 30 W/m2
15:44 16.2 °C 15.6 °C 1013.1 hPa South 7.9 km/h 14.5 km/h 93% 0.51 mm 30 W/m2
15:49 16.1 °C 15.5 °C 1013.1 hPa South 7.9 km/h 17.7 km/h 93% 0.51 mm 33 W/m2
15:54 16.1 °C 15.5 °C 1012.8 hPa South 6.6 km/h 16.1 km/h 93% 0.51 mm 33 W/m2
15:59 16.2 °C 15.6 °C 1013.1 hPa South 8.4 km/h 20.9 km/h 93.2% 0.51 mm 30 W/m2
16:04 16.2 °C 15.7 °C 1013.1 hPa SSW 7.4 km/h 20.9 km/h 93.4% 0.51 mm 35 W/m2
16:09 16.2 °C 15.6 °C 1012.8 hPa SW 9 km/h 11.3 km/h 93% 0.51 mm 39 W/m2
16:14 16.3 °C 15.7 °C 1012.8 hPa South 5.1 km/h 14.5 km/h 93% 0.51 mm 33 W/m2
16:19 16.3 °C 15.7 °C 1012.8 hPa South 6 km/h 14.5 km/h 93% 0.51 mm 28 W/m2
16:24 16.3 °C 15.7 °C 1012.8 hPa SSW 5.3 km/h 14.5 km/h 93% 0.51 mm 25 W/m2
16:29 16.3 °C 15.7 °C 1012.8 hPa SSW 8.4 km/h 14.5 km/h 93% 0.51 mm 23 W/m2
16:34 16.3 °C 15.8 °C 1012.8 hPa SSW 6.4 km/h 12.9 km/h 93% 0.51 mm 21 W/m2
16:39 16.3 °C 15.8 °C 1012.8 hPa SSW 9.5 km/h 19.3 km/h 93% 0.25 mm 18 W/m2
16:44 16.3 °C 15.7 °C 1012.8 hPa SSW 9 km/h 19.3 km/h 93% 0.25 mm 21 W/m2
16:49 16.3 °C 15.7 °C 1012.8 hPa SSW 6 km/h 11.3 km/h 93% 0.25 mm 28 W/m2
16:54 16.3 °C 15.7 °C 1012.8 hPa SSW 7.2 km/h 11.3 km/h 93% 0.51 mm 44 W/m2
16:59 16.3 °C 15.7 °C 1012.8 hPa SSW 3.9 km/h 9.7 km/h 93% 0.51 mm 51 W/m2
17:04 16.3 °C 15.7 °C 1012.8 hPa SSW 0.6 km/h 6.4 km/h 93% 0.25 mm 42 W/m2
17:09 16.3 °C 15.7 °C 1012.8 hPa SSW 1.3 km/h 6.4 km/h 93% 0.51 mm 23 W/m2
17:14 16.3 °C 15.7 °C 1012.8 hPa SSW 1.6 km/h 4.8 km/h 93% 0.51 mm 23 W/m2
17:19 16.3 °C 15.7 °C 1012.8 hPa SSW 1.9 km/h 8 km/h 93% 0.51 mm 21 W/m2
17:24 16.3 °C 15.7 °C 1012.8 hPa SSW 4.3 km/h 8 km/h 93% 0.51 mm 14 W/m2
17:29 16.3 °C 15.7 °C 1012.8 hPa SSW 4.3 km/h 9.7 km/h 93% 0.51 mm 11 W/m2
17:34 16.3 °C 15.7 °C 1012.8 hPa SSW 2.7 km/h 8 km/h 93% 0.51 mm 11 W/m2
17:39 16.3 °C 15.7 °C 1012.8 hPa SSW 2.1 km/h 6.4 km/h 93% 0.51 mm 9 W/m2
17:44 16.3 °C 15.7 °C 1012.8 hPa SSW 6.1 km/h 11.3 km/h 93% 0.51 mm 12 W/m2
17:49 16.3 °C 15.7 °C 1012.8 hPa SSW 2.7 km/h 6.4 km/h 93% 0.51 mm 14 W/m2
17:54 16.3 °C 15.7 °C 1012.8 hPa SSW 3.2 km/h 8 km/h 93% 0.51 mm 11 W/m2
17:59 16.3 °C 15.7 °C 1012.8 hPa SSW 4.7 km/h 9.7 km/h 93% 0.25 mm 11 W/m2
18:04 16.3 °C 15.7 °C 1012.8 hPa SSW 3.1 km/h 6.4 km/h 93% 0.25 mm 7 W/m2
18:09 16.3 °C 15.7 °C 1012.8 hPa SSW 3.2 km/h 6.4 km/h 93% 0.25 mm 0 W/m2
18:14 16.3 °C 15.7 °C 1012.8 hPa SSW 4.7 km/h 8 km/h 93% 0 mm 0 W/m2
18:19 16.3 °C 15.8 °C 1012.8 hPa SSW 2.7 km/h 8 km/h 93.6% 0 mm 0 W/m2
18:24 16.3 °C 15.8 °C 1012.8 hPa SSW 2.3 km/h 6.4 km/h 94% 0 mm 0 W/m2
18:29 16.3 °C 15.8 °C 1012.8 hPa SSW 3.5 km/h 6.4 km/h 94% 0 mm 0 W/m2
18:34 16.3 °C 15.8 °C 1012.8 hPa SSW 2.7 km/h 6.4 km/h 94% 0 mm 0 W/m2
18:39 16.3 °C 15.8 °C 1012.8 hPa SSW 1.1 km/h 6.4 km/h 94% 0 mm 0 W/m2
18:44 16.3 °C 15.8 °C 1012.8 hPa SSW 1.9 km/h 6.4 km/h 94% 0 mm 0 W/m2
18:49 16.3 °C 15.8 °C 1013.1 hPa SSW 1.9 km/h 6.4 km/h 94% 0 mm 0 W/m2
18:54 16.3 °C 15.8 °C 1013.1 hPa SSW 1.4 km/h 4.8 km/h 94% 0 mm 0 W/m2
18:59 16.3 °C 15.8 °C 1013.1 hPa SSW 2.9 km/h 6.4 km/h 94% 0 mm 0 W/m2
19:04 16.3 °C 15.8 °C 1013.4 hPa SSW 2.1 km/h 6.4 km/h 94% 0 mm 0 W/m2
19:09 16.3 °C 15.8 °C 1013.4 hPa SSW 2.9 km/h 8 km/h 94% 0 mm 0 W/m2
19:14 16.3 °C 15.8 °C 1013.4 hPa SSW 5.1 km/h 9.7 km/h 94% 0 mm 0 W/m2
19:19 16.3 °C 15.8 °C 1013.4 hPa SSW 3.7 km/h 9.7 km/h 94% 0 mm 0 W/m2
19:24 16.3 °C 15.8 °C 1013.4 hPa SSW 4.5 km/h 11.3 km/h 94% 0 mm 0 W/m2
19:29 16.3 °C 15.8 °C 1013.4 hPa SSW 3.7 km/h 11.3 km/h 94% 0 mm 0 W/m2
19:34 16.3 °C 15.8 °C 1013.4 hPa SSW 3.2 km/h 8 km/h 94% 0 mm 0 W/m2
19:39 16.3 °C 15.8 °C 1013.4 hPa SSW 3.9 km/h 6.4 km/h 94% 0 mm 0 W/m2
19:44 16.3 °C 15.8 °C 1013.4 hPa SSW 3.4 km/h 9.7 km/h 94% 0 mm 0 W/m2
19:49 16.3 °C 15.8 °C 1013.4 hPa SSW 5.8 km/h 11.3 km/h 94% 0 mm 0 W/m2
19:54 16.3 °C 15.8 °C 1013.4 hPa SSW 3.4 km/h 9.7 km/h 94% 0 mm 0 W/m2
19:59 16.3 °C 15.8 °C 1013.4 hPa SSW 3.4 km/h 9.7 km/h 94% 0 mm 0 W/m2
20:04 16.3 °C 15.8 °C 1013.4 hPa SSW 3.5 km/h 8 km/h 94% 0 mm 0 W/m2
20:09 16.3 °C 15.8 °C 1013.4 hPa SSW 1.3 km/h 8 km/h 94% 0 mm 0 W/m2
20:14 16.2 °C 15.7 °C 1013.4 hPa SSW 3.9 km/h 9.7 km/h 94% 0 mm 0 W/m2
20:19 16.3 °C 15.8 °C 1013.4 hPa SSW 1.3 km/h 6.4 km/h 94% 0 mm 0 W/m2
20:24 16.2 °C 15.7 °C 1013.4 hPa SSW 2.6 km/h 4.8 km/h 94% 0 mm 0 W/m2
20:29 16.2 °C 15.7 °C 1013.4 hPa SSW 2.4 km/h 8 km/h 94% 0 mm 0 W/m2
20:34 16.2 °C 15.7 °C 1013.4 hPa SSW 2.9 km/h 6.4 km/h 94% 0 mm 0 W/m2
20:39 16.2 °C 15.7 °C 1013.4 hPa SSW 1.6 km/h 4.8 km/h 94% 0 mm 0 W/m2
20:44 16.2 °C 15.7 °C 1013.8 hPa SSW 4 km/h 8 km/h 94% 0 mm 0 W/m2
20:49 16.2 °C 15.7 °C 1013.8 hPa SSW 3.9 km/h 9.7 km/h 94% 0 mm 0 W/m2
20:54 16.2 °C 15.7 °C 1013.8 hPa SSW 2.1 km/h 4.8 km/h 94% 0 mm 0 W/m2
20:59 16.2 °C 15.7 °C 1014.1 hPa SSW 5.3 km/h 11.3 km/h 94% 0 mm 0 W/m2
21:04 16.2 °C 15.7 °C 1014.1 hPa SSW 4 km/h 9.7 km/h 94% 0 mm 0 W/m2
21:09 16.2 °C 15.7 °C 1014.1 hPa SSW 6.4 km/h 11.3 km/h 94% 0 mm 0 W/m2
21:14 16.2 °C 15.7 °C 1014.1 hPa SSW 3.5 km/h 11.3 km/h 94% 0 mm 0 W/m2
21:19 16.2 °C 15.7 °C 1014.1 hPa SSW 1.3 km/h 9.7 km/h 94% 0 mm 0 W/m2
21:24 16.2 °C 15.7 °C 1014.1 hPa SSW 2.4 km/h 6.4 km/h 94% 0 mm 0 W/m2
21:29 16.2 °C 15.7 °C 1014.1 hPa SSW 2.3 km/h 8 km/h 94% 0 mm 0 W/m2
21:34 16.2 °C 15.7 °C 1013.8 hPa SSW 3.9 km/h 8 km/h 94% 0 mm 0 W/m2
21:39 16.2 °C 15.7 °C 1014.1 hPa SSW 4 km/h 8 km/h 94% 0 mm 0 W/m2
21:44 16.2 °C 15.7 °C 1014.1 hPa SSW 3.4 km/h 8 km/h 94% 0 mm 0 W/m2
21:49 16.2 °C 15.7 °C 1014.1 hPa SSW 1.3 km/h 4.8 km/h 94% 0 mm 0 W/m2
21:54 16.2 °C 15.7 °C 1014.4 hPa SSW 1.3 km/h 4.8 km/h 94% 0 mm 0 W/m2
21:59 16.2 °C 15.7 °C 1014.4 hPa SSW 2.7 km/h 6.4 km/h 94% 0 mm 0 W/m2
22:04 16.1 °C 15.6 °C 1014.1 hPa SSW 3.7 km/h 8 km/h 94% 0 mm 0 W/m2
22:09 16.2 °C 15.7 °C 1014.4 hPa SSW 1.9 km/h 8 km/h 94% 0 mm 0 W/m2
22:14 16.1 °C 15.6 °C 1014.4 hPa SSW 2.6 km/h 4.8 km/h 94% 0 mm 0 W/m2
22:19 16.1 °C 15.6 °C 1014.4 hPa SSW 2.1 km/h 6.4 km/h 94% 0 mm 0 W/m2
22:24 16.1 °C 15.6 °C 1014.4 hPa SSW 1.3 km/h 4.8 km/h 94% 0 mm 0 W/m2
22:29 16.1 °C 15.6 °C 1014.4 hPa SSW 0.6 km/h 3.2 km/h 94% 0 mm 0 W/m2
22:34 16.1 °C 15.6 °C 1014.4 hPa SSW 0.3 km/h 1.6 km/h 94% 0 mm 0 W/m2
22:39 15.9 °C 15.4 °C 1014.4 hPa SSW 0.6 km/h 3.2 km/h 94% 0 mm 0 W/m2
22:44 15.8 °C 15.3 °C 1014.4 hPa Calm     94% 0 mm 0 W/m2
22:49 15.7 °C 15.2 °C 1014.1 hPa Calm     94% 0 mm 0 W/m2
22:54 15.7 °C 15.2 °C 1014.4 hPa Calm     94% 0 mm 0 W/m2
22:59 15.7 °C 15.2 °C 1014.1 hPa Calm     94% 0 mm 0 W/m2
23:04 15.6 °C 15.1 °C 1014.1 hPa Calm     94% 0 mm 0 W/m2
23:09 15.4 °C 14.9 °C 1014.1 hPa Calm     94% 0 mm 0 W/m2
23:14 15.6 °C 15.2 °C 1014.1 hPa SSW 0.6 km/h 3.2 km/h 94.2% 0 mm 0 W/m2
23:19 15.6 °C 15.1 °C 1014.1 hPa SSW 0.3 km/h 1.6 km/h 94% 0 mm 0 W/m2
23:24 15.6 °C 15.1 °C 1014.1 hPa Calm   3.2 km/h 94.3% 0 mm 0 W/m2
23:29 15.6 °C 15.1 °C 1014.1 hPa Calm     94.4% 0 mm 0 W/m2
23:34 15.5 °C 15.1 °C 1014.1 hPa Calm     94.2% 0 mm 0 W/m2
23:39 15.4 °C 14.9 °C 1014.1 hPa SSW 0.6 km/h 4.8 km/h 94.2% 0 mm 0 W/m2
23:44 15.4 °C 15.1 °C 1014.4 hPa SSW 2.6 km/h 6.4 km/h 94.6% 0 mm 0 W/m2
23:49 15.5 °C 15.2 °C 1014.1 hPa SSW 1 km/h 4.8 km/h 95% 0 mm 0 W/m2
23:54 15.6 °C 15.3 °C 1014.1 hPa SSW 1.6 km/h 4.8 km/h 95% 0 mm 0 W/m2
23:59 15.6 °C 15.3 °C 1014.1 hPa SSW 1.4 km/h 8 km/h 95% 0 mm 0 W/m2
Bath Spa Weather
Compliments of Weather Underground - 2 mb